Time,TemperatureF,DewpointF,PressureIn,WindDirection,WindDirectionDegrees,WindSpeedMPH,WindSpeedGustMPH,Humidity,HourlyPrecipIn,Conditions,Clouds,dailyrainin,SoftwareType,DateUTC
2013-04-24 00:02:00,47.0,45.0,29.92,NNW,330,3.0,10.0,92,0.01,,,0.11,,2013-04-24 05:02:00,
2013-04-24 00:12:00,47.0,45.0,29.92,NNW,330,3.0,10.0,92,0.01,,,0.11,,2013-04-24 05:12:00,
2013-04-24 00:22:00,47.0,45.0,29.94,NW,313,2.0,10.0,93,0.01,,,0.11,,2013-04-24 05:22:00,
2013-04-24 00:32:00,47.0,45.0,29.92,WNW,294,0.0,4.0,93,0.01,,,0.11,,2013-04-24 05:32:00,
2013-04-24 00:42:00,47.0,45.0,29.92,WNW,294,0.0,4.0,93,0.01,,,0.11,,2013-04-24 05:42:00,
2013-04-24 00:52:00,46.0,44.0,29.95,NW,306,4.0,9.0,94,0.04,,,0.14,,2013-04-24 05:52:00,
2013-04-24 01:02:00,46.0,44.0,29.96,West,277,4.0,10.0,94,0.04,,,0.15,,2013-04-24 06:02:00,
2013-04-24 01:12:00,46.0,44.0,29.96,West,277,4.0,10.0,94,0.04,,,0.15,,2013-04-24 06:12:00,
2013-04-24 01:21:00,45.0,43.0,29.96,West,279,6.0,12.0,94,0.06,,,0.17,,2013-04-24 06:21:00,
2013-04-24 01:32:00,45.0,43.0,29.94,NNW,341,4.0,9.0,94,0.08,,,0.19,,2013-04-24 06:32:00,
2013-04-24 01:42:00,45.0,43.0,29.94,NNW,341,4.0,9.0,94,0.08,,,0.19,,2013-04-24 06:42:00,
2013-04-24 01:51:00,45.0,43.0,29.93,NNW,331,3.0,10.0,94,0.06,,,0.20,,2013-04-24 06:51:00,
2013-04-24 02:02:00,45.0,43.0,29.96,WNW,302,6.0,12.0,94,0.06,,,0.21,,2013-04-24 07:02:00,
2013-04-24 02:11:00,45.0,43.0,29.96,WNW,302,6.0,12.0,94,0.06,,,0.21,,2013-04-24 07:11:00,
2013-04-24 02:22:00,44.0,42.0,29.95,NNW,339,6.0,10.0,93,0.03,,,0.21,,2013-04-24 07:22:00,
2013-04-24 02:32:00,44.0,42.0,29.94,NNW,330,7.0,11.0,93,0.03,,,0.22,,2013-04-24 07:32:00,
2013-04-24 02:42:00,44.0,42.0,29.94,NNW,330,7.0,11.0,93,0.03,,,0.22,,2013-04-24 07:42:00,
2013-04-24 02:52:00,44.0,42.0,29.95,NNW,327,4.0,11.0,93,0.02,,,0.22,,2013-04-24 07:52:00,
2013-04-24 03:02:00,44.0,42.0,29.94,WNW,303,3.0,10.0,94,0.02,,,0.23,,2013-04-24 08:02:00,
2013-04-24 03:12:00,44.0,42.0,29.94,WNW,303,3.0,10.0,94,0.02,,,0.23,,2013-04-24 08:12:00,
2013-04-24 03:21:00,43.0,41.0,29.95,NW,307,4.0,8.0,94,0.02,,,0.23,,2013-04-24 08:21:00,
2013-04-24 03:33:00,43.0,41.0,29.93,North,5,5.0,9.0,94,0.01,,,0.23,,2013-04-24 08:33:00,
2013-04-24 03:42:00,43.0,41.0,29.93,North,5,5.0,9.0,94,0.01,,,0.23,,2013-04-24 08:42:00,
2013-04-24 03:52:00,43.0,41.0,29.97,NNW,345,7.0,12.0,94,0.02,,,0.24,,2013-04-24 08:52:00,
2013-04-24 04:02:00,42.0,40.0,29.93,ENE,70,0.0,11.0,93,0.02,,,0.25,,2013-04-24 09:02:00,
2013-04-24 04:11:00,42.0,40.0,29.93,ENE,70,0.0,11.0,93,0.02,,,0.25,,2013-04-24 09:11:00,
2013-04-24 04:21:00,42.0,40.0,29.95,NNW,346,1.0,9.0,93,0.04,,,0.27,,2013-04-24 09:21:00,
2013-04-24 04:33:00,42.0,40.0,29.95,NW,305,5.0,9.0,94,0.06,,,0.28,,2013-04-24 09:33:00,
2013-04-24 04:42:00,42.0,40.0,29.95,NW,305,5.0,9.0,94,0.06,,,0.28,,2013-04-24 09:42:00,
2013-04-24 04:53:00,42.0,40.0,29.97,WNW,300,5.0,11.0,94,0.06,,,0.30,,2013-04-24 09:53:00,
2013-04-24 05:02:00,42.0,40.0,29.95,NNW,331,3.0,10.0,94,0.07,,,0.32,,2013-04-24 10:02:00,
2013-04-24 05:12:00,42.0,40.0,29.95,NNW,331,3.0,10.0,94,0.07,,,0.32,,2013-04-24 10:12:00,
2013-04-24 05:22:00,42.0,40.0,29.98,WNW,294,6.0,10.0,94,0.05,,,0.32,,2013-04-24 10:22:00,
2013-04-24 05:32:00,42.0,40.0,29.99,NW,304,6.0,11.0,94,0.03,,,0.32,,2013-04-24 10:32:00,
2013-04-24 05:42:00,42.0,40.0,29.99,NW,304,6.0,11.0,94,0.03,,,0.32,,2013-04-24 10:42:00,
2013-04-24 05:52:00,41.0,39.0,29.97,NNW,346,6.0,12.0,94,0.03,,,0.33,,2013-04-24 10:52:00,
2013-04-24 06:02:00,41.0,39.0,29.97,North,355,6.0,11.0,94,0.01,,,0.33,,2013-04-24 11:02:00,
2013-04-24 06:11:00,41.0,39.0,29.97,North,355,6.0,11.0,94,0.01,,,0.33,,2013-04-24 11:11:00,
2013-04-24 06:21:00,41.0,39.0,29.97,NNW,330,8.0,13.0,94,0.01,,,0.33,,2013-04-24 11:21:00,
2013-04-24 06:32:00,41.0,39.0,29.98,NNE,23,6.0,10.0,93,0.02,,,0.34,,2013-04-24 11:32:00,
2013-04-24 06:42:00,41.0,39.0,29.98,NNE,23,6.0,10.0,93,0.02,,,0.34,,2013-04-24 11:42:00,
2013-04-24 06:52:00,41.0,39.0,29.96,WNW,302,5.0,11.0,94,0.02,,,0.35,,2013-04-24 11:52:00,
2013-04-24 07:02:00,40.0,38.0,29.97,NNW,346,8.0,12.0,93,0.02,,,0.35,,2013-04-24 12:02:00,
2013-04-24 07:11:00,40.0,38.0,29.97,NNW,346,8.0,12.0,93,0.02,,,0.35,,2013-04-24 12:11:00,
2013-04-24 07:22:00,40.0,38.0,30.00,North,351,4.0,12.0,93,0.02,,,0.35,,2013-04-24 12:22:00,
2013-04-24 07:32:00,41.0,39.0,30.01,NW,313,3.0,6.0,93,0.03,,,0.37,,2013-04-24 12:32:00,
2013-04-24 07:42:00,41.0,39.0,30.01,NW,313,3.0,6.0,93,0.03,,,0.37,,2013-04-24 12:42:00,
2013-04-24 07:51:00,41.0,39.0,30.00,NW,323,6.0,9.0,93,0.05,,,0.40,,2013-04-24 12:51:00,
2013-04-24 08:01:00,40.0,38.0,30.01,North,9,6.0,12.0,93,0.06,,,0.41,,2013-04-24 13:01:00,
2013-04-24 08:12:00,40.0,38.0,30.01,North,9,6.0,12.0,93,0.06,,,0.41,,2013-04-24 13:12:00,
2013-04-24 08:22:00,41.0,39.0,30.01,NW,311,0.0,8.0,94,0.06,,,0.41,,2013-04-24 13:22:00,
2013-04-24 08:31:00,40.0,38.0,30.01,NW,324,5.0,11.0,93,0.04,,,0.41,,2013-04-24 13:31:00,
2013-04-24 08:41:00,40.0,38.0,30.01,NW,324,5.0,11.0,93,0.04,,,0.41,,2013-04-24 13:41:00,
2013-04-24 08:52:00,40.0,38.0,30.06,NNW,332,7.0,13.0,92,0.01,,,0.41,,2013-04-24 13:52:00,
2013-04-24 09:01:00,40.0,38.0,30.07,NW,324,7.0,13.0,92,0.00,,,0.41,,2013-04-24 14:01:00,
2013-04-24 09:11:00,40.0,38.0,30.07,NW,324,7.0,13.0,92,0.00,,,0.41,,2013-04-24 14:11:00,
2013-04-24 09:21:00,41.0,39.0,30.07,NW,311,7.0,12.0,92,0.00,,,0.41,,2013-04-24 14:21:00,
2013-04-24 09:32:00,41.0,39.0,30.08,NW,307,7.0,14.0,93,0.00,,,0.41,,2013-04-24 14:32:00,
2013-04-24 09:41:00,41.0,39.0,30.08,NW,307,7.0,14.0,93,0.00,,,0.41,,2013-04-24 14:41:00,
2013-04-24 09:51:00,41.0,39.0,30.09,NW,314,5.0,12.0,93,0.00,,,0.41,,2013-04-24 14:51:00,
2013-04-24 10:01:00,41.0,39.0,30.08,WNW,290,4.0,12.0,93,0.00,,,0.41,,2013-04-24 15:01:00,
2013-04-24 10:11:00,41.0,39.0,30.08,WNW,290,4.0,12.0,93,0.00,,,0.41,,2013-04-24 15:11:00,
2013-04-24 10:21:00,41.0,39.0,30.08,NNW,347,7.0,14.0,94,0.00,,,0.41,,2013-04-24 15:21:00,
2013-04-24 10:33:00,42.0,40.0,30.09,NNW,348,9.0,15.0,92,0.00,,,0.41,,2013-04-24 15:33:00,
2013-04-24 10:43:00,42.0,40.0,30.09,NNW,348,9.0,15.0,92,0.00,,,0.41,,2013-04-24 15:43:00,
2013-04-24 10:53:00,42.0,39.0,30.10,NW,316,9.0,13.0,90,0.00,,,0.41,,2013-04-24 15:53:00,
2013-04-24 11:03:00,43.0,40.0,30.11,NW,314,7.0,13.0,88,0.00,,,0.41,,2013-04-24 16:03:00,
2013-04-24 11:12:00,43.0,40.0,30.11,NW,314,7.0,13.0,88,0.00,,,0.41,,2013-04-24 16:12:00,
2013-04-24 11:23:00,44.0,40.0,30.13,North,355,8.0,15.0,85,0.00,,,0.41,,2013-04-24 16:23:00,
2013-04-24 11:32:00,44.0,39.0,30.14,WNW,288,6.0,13.0,84,0.00,,,0.41,,2013-04-24 16:32:00,
2013-04-24 11:42:00,44.0,39.0,30.14,WNW,288,6.0,13.0,84,0.00,,,0.41,,2013-04-24 16:42:00,
2013-04-24 11:52:00,43.0,38.0,30.15,NW,318,6.0,13.0,83,0.00,,,0.41,,2013-04-24 16:52:00,
2013-04-24 12:02:00,43.0,38.0,30.17,North,355,9.0,19.0,82,0.00,,,0.41,,2013-04-24 17:02:00,
2013-04-24 12:12:00,43.0,38.0,30.17,North,355,9.0,19.0,82,0.00,,,0.41,,2013-04-24 17:12:00,
2013-04-24 12:22:00,44.0,39.0,30.18,NNW,340,5.0,14.0,84,0.00,,,0.41,,2013-04-24 17:22:00,
2013-04-24 12:32:00,43.0,38.0,30.18,WNW,298,8.0,14.0,81,0.00,,,0.38,,2013-04-24 17:32:00,
2013-04-24 12:42:00,43.0,38.0,30.18,WNW,298,8.0,14.0,81,0.00,,,0.38,,2013-04-24 17:42:00,
2013-04-24 12:51:00,44.0,39.0,30.18,NNW,333,6.0,14.0,81,0.00,,,0.38,,2013-04-24 17:51:00,
2013-04-24 13:02:00,43.0,38.0,30.18,WNW,302,6.0,14.0,81,0.00,,,0.38,,2013-04-24 18:02:00,
2013-04-24 13:12:00,43.0,38.0,30.18,WNW,302,6.0,14.0,81,0.00,,,0.38,,2013-04-24 18:12:00,
2013-04-24 13:22:00,44.0,38.0,30.19,NNW,339,7.0,14.0,78,0.00,,,0.38,,2013-04-24 18:22:00,
2013-04-24 13:33:00,44.0,38.0,30.19,NNW,344,6.0,10.0,78,0.00,,,0.38,,2013-04-24 18:33:00,
2013-04-24 13:42:00,44.0,38.0,30.19,NNW,344,6.0,10.0,78,0.00,,,0.38,,2013-04-24 18:42:00,
2013-04-24 13:52:00,45.0,39.0,30.19,NW,304,4.0,10.0,80,0.00,,,0.38,,2013-04-24 18:52:00,
2013-04-24 14:02:00,46.0,39.0,30.19,WNW,294,5.0,10.0,76,0.00,,,0.38,,2013-04-24 19:02:00,
2013-04-24 14:11:00,46.0,39.0,30.19,WNW,294,5.0,10.0,76,0.00,,,0.38,,2013-04-24 19:11:00,
2013-04-24 14:22:00,45.0,37.0,30.20,NNW,340,6.0,13.0,74,0.00,,,0.38,,2013-04-24 19:22:00,
2013-04-24 14:32:00,46.0,38.0,30.20,NW,309,6.0,10.0,73,0.00,,,0.36,,2013-04-24 19:32:00,
2013-04-24 14:42:00,46.0,38.0,30.20,NW,309,6.0,10.0,73,0.00,,,0.36,,2013-04-24 19:42:00,
2013-04-24 14:52:00,45.0,37.0,30.21,NW,321,5.0,13.0,74,0.00,,,0.36,,2013-04-24 19:52:00,
2013-04-24 15:02:00,45.0,37.0,30.22,NW,315,7.0,10.0,72,0.00,,,0.36,,2013-04-24 20:02:00,
2013-04-24 15:11:00,45.0,37.0,30.22,NW,315,7.0,10.0,72,0.00,,,0.36,,2013-04-24 20:11:00,
2013-04-24 15:22:00,46.0,39.0,30.22,West,271,4.0,10.0,75,0.00,,,0.36,,2013-04-24 20:22:00,
2013-04-24 15:32:00,46.0,37.0,30.22,West,272,4.0,10.0,72,0.00,,,0.34,,2013-04-24 20:32:00,
2013-04-24 15:42:00,46.0,37.0,30.22,West,272,4.0,10.0,72,0.00,,,0.34,,2013-04-24 20:42:00,
2013-04-24 15:52:00,46.0,38.0,30.22,NW,309,4.0,9.0,74,0.00,,,0.34,,2013-04-24 20:52:00,
2013-04-24 16:02:00,48.0,38.0,30.23,WNW,299,6.0,11.0,69,0.00,,,0.34,,2013-04-24 21:02:00,
2013-04-24 16:11:00,48.0,38.0,30.23,WNW,299,6.0,11.0,69,0.00,,,0.34,,2013-04-24 21:11:00,
2013-04-24 16:21:00,47.0,37.0,30.23,West,279,6.0,10.0,68,0.00,,,0.34,,2013-04-24 21:21:00,
2013-04-24 16:33:00,47.0,37.0,30.23,WNW,296,5.0,10.0,69,0.00,,,0.34,,2013-04-24 21:33:00,
2013-04-24 16:42:00,47.0,37.0,30.23,WNW,296,5.0,10.0,69,0.00,,,0.34,,2013-04-24 21:42:00,
2013-04-24 16:52:00,48.0,38.0,30.23,North,5,3.0,11.0,69,0.00,,,0.34,,2013-04-24 21:52:00,
2013-04-24 17:03:00,48.0,38.0,30.23,NW,306,4.0,8.0,67,0.00,,,0.34,,2013-04-24 22:03:00,
2013-04-24 17:12:00,48.0,38.0,30.23,NW,306,4.0,8.0,67,0.00,,,0.34,,2013-04-24 22:12:00,
2013-04-24 17:22:00,48.0,37.0,30.24,WNW,288,5.0,9.0,65,0.00,,,0.34,,2013-04-24 22:22:00,
2013-04-24 17:33:00,47.0,35.0,30.23,NW,318,4.0,9.0,64,0.00,,,0.34,,2013-04-24 22:33:00,
2013-04-24 17:42:00,47.0,35.0,30.23,NW,318,4.0,9.0,64,0.00,,,0.34,,2013-04-24 22:42:00,
2013-04-24 17:52:00,47.0,35.0,30.24,NNW,348,5.0,8.0,62,0.00,,,0.34,,2013-04-24 22:52:00,
2013-04-24 18:02:00,49.0,37.0,30.24,NW,308,1.0,6.0,62,0.00,,,0.34,,2013-04-24 23:02:00,
2013-04-24 18:12:00,49.0,37.0,30.24,NW,308,1.0,6.0,62,0.00,,,0.34,,2013-04-24 23:12:00,
2013-04-24 18:21:00,49.0,35.0,30.24,West,271,3.0,10.0,58,0.00,,,0.34,,2013-04-24 23:21:00,
2013-04-24 18:32:00,49.0,34.0,30.24,WNW,294,4.0,7.0,57,0.00,,,0.34,,2013-04-24 23:32:00,
2013-04-24 18:42:00,49.0,34.0,30.24,WNW,294,4.0,7.0,57,0.00,,,0.34,,2013-04-24 23:42:00,
2013-04-24 18:51:00,49.0,35.0,30.24,WNW,283,1.0,6.0,59,0.00,,,0.34,,2013-04-24 23:51:00,
2013-04-24 19:01:00,48.0,34.0,30.24,WNW,294,2.0,5.0,59,0.00,,,0.34,,2013-04-25 00:01:00,
2013-04-24 19:12:00,48.0,34.0,30.24,WNW,294,2.0,5.0,59,0.00,,,0.34,,2013-04-25 00:12:00,
2013-04-24 19:22:00,48.0,35.0,30.25,WNW,285,0.0,3.0,61,0.00,,,0.34,,2013-04-25 00:22:00,
2013-04-24 19:32:00,47.0,35.0,30.26,WNW,282,0.0,2.0,64,0.00,,,0.34,,2013-04-25 00:32:00,
2013-04-24 19:42:00,47.0,35.0,30.26,WNW,282,0.0,2.0,64,0.00,,,0.34,,2013-04-25 00:42:00,
2013-04-24 19:52:00,46.0,37.0,30.26,WNW,282,0.0,0.0,70,0.00,,,0.34,,2013-04-25 00:52:00,
2013-04-24 20:01:00,45.0,36.0,30.27,WNW,282,0.0,0.0,71,0.00,,,0.34,,2013-04-25 01:01:00,
2013-04-24 20:11:00,45.0,36.0,30.27,WNW,282,0.0,0.0,71,0.00,,,0.34,,2013-04-25 01:11:00,
2013-04-24 20:23:00,44.0,35.0,30.27,WNW,282,0.0,0.0,70,0.00,,,0.34,,2013-04-25 01:23:00,
2013-04-24 20:32:00,43.0,36.0,30.28,WNW,282,0.0,0.0,75,0.00,,,0.34,,2013-04-25 01:32:00,
2013-04-24 20:42:00,43.0,36.0,30.28,WNW,282,0.0,0.0,75,0.00,,,0.34,,2013-04-25 01:42:00,
2013-04-24 20:52:00,42.0,36.0,30.28,WNW,282,0.0,0.0,78,0.00,,,0.34,,2013-04-25 01:52:00,
2013-04-24 21:02:00,42.0,37.0,30.29,WNW,282,0.0,0.0,81,0.00,,,0.34,,2013-04-25 02:02:00,
2013-04-24 21:11:00,42.0,37.0,30.29,WNW,282,0.0,0.0,81,0.00,,,0.34,,2013-04-25 02:11:00,
2013-04-24 21:22:00,41.0,36.0,30.29,WNW,282,0.0,0.0,81,0.00,,,0.34,,2013-04-25 02:22:00,
2013-04-24 21:32:00,41.0,35.0,30.29,WNW,282,0.0,0.0,80,0.00,,,0.34,,2013-04-25 02:32:00,
2013-04-24 21:42:00,41.0,35.0,30.29,WNW,282,0.0,0.0,80,0.00,,,0.34,,2013-04-25 02:42:00,
2013-04-24 21:51:00,41.0,35.0,30.29,WNW,282,0.0,0.0,80,0.00,,,0.34,,2013-04-25 02:51:00,
2013-04-24 22:02:00,40.0,35.0,30.30,WNW,282,0.0,0.0,83,0.00,,,0.34,,2013-04-25 03:02:00,
2013-04-24 22:11:00,40.0,35.0,30.30,WNW,282,0.0,0.0,83,0.00,,,0.34,,2013-04-25 03:11:00,
2013-04-24 22:22:00,39.0,35.0,30.31,WNW,282,0.0,0.0,87,0.00,,,0.34,,2013-04-25 03:22:00,
2013-04-24 22:33:00,39.0,35.0,30.31,WNW,282,0.0,0.0,87,0.00,,,0.34,,2013-04-25 03:33:00,
2013-04-24 22:42:00,39.0,35.0,30.31,WNW,282,0.0,0.0,87,0.00,,,0.34,,2013-04-25 03:42:00,
2013-04-24 22:52:00,39.0,35.0,30.31,WNW,282,0.0,0.0,87,0.00,,,0.31,,2013-04-25 03:52:00,
2013-04-24 23:03:00,39.0,35.0,30.32,WNW,282,0.0,0.0,86,0.00,,,0.31,,2013-04-25 04:03:00,
2013-04-24 23:12:00,39.0,35.0,30.32,WNW,282,0.0,0.0,86,0.00,,,0.31,,2013-04-25 04:12:00,
2013-04-24 23:23:00,39.0,36.0,30.32,WNW,282,0.0,0.0,88,0.00,,,0.31,,2013-04-25 04:23:00,
2013-04-24 23:32:00,38.0,35.0,30.32,WNW,282,0.0,0.0,89,0.00,,,0.31,,2013-04-25 04:32:00,
2013-04-24 23:43:00,38.0,35.0,30.32,WNW,282,0.0,0.0,89,0.00,,,0.31,,2013-04-25 04:43:00,
2013-04-24 23:52:00,38.0,35.0,30.32,WNW,282,0.0,0.0,89,0.00,,,0.31,,2013-04-25 04:52:00,